Time;durP1;ratioP1;P1;durP2;ratioP2;P2;SDS_P1;SDS_P2;PMS_P1;PMS_P2;Temp;Humidity;BMP_temperature;BMP_pressure;BME280_temperature;BME280_humidity;BME280_pressure;Samples;Min_cycle;Max_cycle;Signal;HPM_P1;HPM_P2
2023/10/05 00:00:31;;;;;;;5.10;1.65;;;;;;;13.06;100.00;102307.75;5130784;27;20023;-35
2023/10/05 00:02:57;;;;;;;6.50;1.83;;;;;;;13.00;100.00;102295.03;5130770;27;20027;-35
2023/10/05 00:05:22;;;;;;;6.10;1.97;;;;;;;12.95;100.00;102300.25;5130671;27;20019;-35
2023/10/05 00:07:48;;;;;;;;;;;;;;;13.08;100.00;102309.22;5131147;27;20059;-35
2023/10/05 00:10:14;;;;;;;5.97;1.90;;;;;;;13.03;100.00;102306.31;5117140;28;20020;-35
2023/10/05 00:12:39;;;;;;;4.60;1.70;;;;;;;13.04;100.00;102309.84;5116554;28;20783;-35
2023/10/05 00:15:11;;;;;;;6.67;2.07;;;;;;;13.02;100.00;102315.47;5116614;28;20103;-35
2023/10/05 00:17:38;;;;;;;8.48;2.00;;;;;;;12.97;100.00;102309.84;5116450;28;20273;-35
2023/10/05 00:20:33;;;;;;;7.25;2.20;;;;;;;12.98;100.00;102313.38;5116705;28;20034;-35
2023/10/05 00:23:02;;;;;;;6.20;1.85;;;;;;;12.97;100.00;102323.41;5117009;28;20380;-35
2023/10/05 00:25:30;;;;;;;8.95;1.92;;;;;;;12.96;100.00;102321.75;5116582;28;20051;-35
2023/10/05 00:27:56;;;;;;;5.72;2.05;;;;;;;12.93;100.00;102326.75;5116372;27;20035;-35
2023/10/05 00:30:21;;;;;;;5.72;1.80;;;;;;;12.93;100.00;102322.16;5116597;27;20031;-35
2023/10/05 00:32:56;;;;;;;4.90;2.00;;;;;;;12.88;100.00;102327.41;5116847;28;20032;-35
2023/10/05 00:35:26;;;;;;;6.25;1.90;;;;;;;12.92;100.00;102338.69;5116494;28;20106;-35
2023/10/05 00:37:52;;;;;;;5.43;2.00;;;;;;;12.92;100.00;102335.97;5116360;28;20360;-35
2023/10/05 00:40:27;;;;;;;9.57;2.20;;;;;;;12.91;100.00;102337.00;5116376;28;20035;-35
2023/10/05 00:42:53;;;;;;;5.60;2.10;;;;;;;12.88;100.00;102336.41;5116645;28;20144;-35
2023/10/05 00:45:30;;;;;;;5.95;1.92;;;;;;;12.89;100.00;102334.50;5116300;28;20019;-35
2023/10/05 00:48:09;;;;;;;7.88;1.90;;;;;;;12.87;100.00;102337.41;5117006;28;20034;-35
2023/10/05 00:50:35;;;;;;;8.57;2.17;;;;;;;12.83;100.00;102333.47;5117019;28;20063;-35
2023/10/05 00:53:03;;;;;;;7.38;2.25;;;;;;;12.83;100.00;102343.47;5116162;28;20428;-35
2023/10/05 00:55:29;;;;;;;5.00;1.83;;;;;;;12.79;100.00;102337.66;5116014;28;20051;-35
2023/10/05 00:57:55;;;;;;;5.35;1.88;;;;;;;12.85;100.00;102341.41;5116600;28;20079;-35
2023/10/05 01:00:28;;;;;;;7.65;1.98;;;;;;;12.88;100.00;102347.25;5115603;28;20391;-35
2023/10/05 01:05:49;;;;;;;7.97;2.20;;;;;;;12.84;100.00;102346.00;5116479;28;20088;-35
2023/10/05 01:08:16;;;;;;;6.72;2.10;;;;;;;12.76;100.00;102343.50;5116157;28;20085;-35
2023/10/05 01:10:44;;;;;;;6.47;1.88;;;;;;;12.78;100.00;102343.28;5115966;28;20051;-35
2023/10/05 01:13:33;;;;;;;6.97;1.92;;;;;;;12.81;100.00;102340.16;5115717;28;20115;-35
2023/10/05 01:16:03;;;;;;;4.25;1.98;;;;;;;12.77;100.00;102336.19;5115403;28;20016;-35
2023/10/05 01:18:30;;;;;;;5.05;1.83;;;;;;;12.71;100.00;102327.00;5115809;28;20019;-35
2023/10/05 01:20:57;;;;;;;8.20;2.20;;;;;;;12.81;100.00;102340.16;5115128;28;20130;-35
2023/10/05 01:23:37;;;;;;;4.80;1.85;;;;;;;12.72;100.00;102322.41;5115560;28;20063;-35
2023/10/05 01:26:03;;;;;;;6.97;2.00;;;;;;;12.74;100.00;102331.19;5115794;28;20102;-35
2023/10/05 01:28:29;;;;;;;6.13;2.22;;;;;;;12.68;100.00;102318.44;5115481;28;20066;-35
2023/10/05 01:30:55;;;;;;;7.60;3.03;;;;;;;12.71;100.00;102334.31;5115636;28;20032;-35
2023/10/05 01:33:21;;;;;;;6.80;1.92;;;;;;;12.71;100.00;102332.44;5115349;28;20023;-35
2023/10/05 01:35:46;;;;;;;5.13;1.80;;;;;;;12.66;100.00;102317.81;5115247;28;20024;-35
2023/10/05 01:38:12;;;;;;;8.77;2.90;;;;;;;12.63;100.00;102329.91;5115609;28;20027;-35
2023/10/05 01:40:38;;;;;;;8.35;2.20;;;;;;;12.68;100.00;102334.72;5114858;27;20031;-35
2023/10/05 01:43:04;;;;;;;4.88;1.98;;;;;;;12.63;100.00;102319.88;5115203;28;20034;-35
2023/10/05 01:45:29;;;;;;;;;;;;;;;12.74;100.00;102328.47;5116056;28;20023;-35
2023/10/05 01:47:56;;;;;;;8.65;2.22;;;;;;;12.62;100.00;102320.09;5115589;28;20279;-35
2023/10/05 01:50:28;;;;;;;5.57;2.47;;;;;;;12.62;100.00;102314.69;5114918;28;20027;-35
2023/10/05 01:53:02;;;;;;;6.18;2.20;;;;;;;12.60;100.00;102306.75;5114937;28;20161;-35
2023/10/05 01:55:29;;;;;;;5.05;2.22;;;;;;;12.66;100.00;102312.38;5114615;28;20023;-35
2023/10/05 01:57:54;;;;;;;7.78;2.75;;;;;;;12.66;100.00;102315.94;5114984;28;20054;-35
2023/10/05 02:00:22;;;;;;;8.75;2.22;;;;;;;12.67;100.00;102314.06;5115624;28;20024;-35
2023/10/05 02:02:48;;;;;;;7.20;2.15;;;;;;;12.67;100.00;102314.88;5114769;28;20024;-35
2023/10/05 02:05:14;;;;;;;5.80;2.25;;;;;;;12.64;100.00;102312.59;5115224;28;20026;-35
2023/10/05 02:07:40;;;;;;;8.27;3.05;;;;;;;12.65;100.00;102316.16;5115612;27;20027;-35
2023/10/05 02:10:09;;;;;;;6.35;2.28;;;;;;;12.61;100.00;102313.00;5113742;28;20080;-35
2023/10/05 02:12:35;;;;;;;7.72;2.47;;;;;;;12.62;100.00;102315.50;5115171;28;20032;-35
2023/10/05 02:15:11;;;;;;;6.43;2.28;;;;;;;12.57;100.00;102312.59;5114268;27;20070;-35
2023/10/05 02:17:41;;;;;;;;;;;;;;;12.66;100.00;102309.69;5114605;28;20027;-35
2023/10/05 02:20:13;;;;;;;7.47;2.22;;;;;;;12.59;100.00;102299.66;5114974;28;19919;-35
2023/10/05 02:22:40;;;;;;;5.75;2.40;;;;;;;12.52;100.00;102298.81;5114721;28;20471;-35
2023/10/05 02:25:08;;;;;;;6.32;2.47;;;;;;;12.55;100.00;102309.25;5114634;28;20031;-35
2023/10/05 02:27:42;;;;;;;10.18;2.83;;;;;;;12.48;100.00;102304.88;5114656;28;20031;-35
2023/10/05 02:30:09;;;;;;;7.90;2.28;;;;;;;12.48;100.00;102299.44;5114025;28;20038;-35
2023/10/05 02:32:35;;;;;;;8.00;2.55;;;;;;;12.55;100.00;102305.72;5114610;28;20028;-35
2023/10/05 02:35:17;;;;;;;7.85;2.50;;;;;;;12.53;100.00;102303.19;5114245;27;20043;-35
2023/10/05 02:37:47;;;;;;;4.90;2.10;;;;;;;12.52;100.00;102298.81;5114125;28;20517;-35
2023/10/05 02:40:12;;;;;;;9.13;2.90;;;;;;;12.49;100.00;102299.25;5114128;28;20035;-35
2023/10/05 02:42:39;;;;;;;6.40;2.33;;;;;;;12.50;100.00;102306.34;5114474;28;20020;-35
2023/10/05 02:45:05;;;;;;;8.00;2.22;;;;;;;12.38;100.00;102276.25;5114084;28;20368;-35
2023/10/05 02:47:31;;;;;;;6.22;2.30;;;;;;;12.44;100.00;102290.88;5114458;28;20062;-35
2023/10/05 02:49:57;;;;;;;5.07;1.98;;;;;;;12.37;100.00;102281.91;5114350;28;20031;-35
2023/10/05 02:52:25;;;;;;;7.80;2.45;;;;;;;12.38;100.00;102297.97;5113978;28;20038;-35
2023/10/05 02:54:50;;;;;;;7.28;2.35;;;;;;;12.35;100.00;102278.59;5113698;28;20020;-36
2023/10/05 02:57:16;;;;;;;7.47;2.70;;;;;;;12.41;100.00;102285.03;5114048;28;20055;-36
2023/10/05 02:59:46;;;;;;;7.93;2.80;;;;;;;12.37;100.00;102284.63;5114773;28;20352;-36
2023/10/05 03:02:16;;;;;;;9.60;2.40;;;;;;;12.36;100.00;102293.81;5113982;28;20058;-36
2023/10/05 03:04:45;;;;;;;5.63;2.00;;;;;;;12.37;100.00;102290.03;5114267;28;20090;-36
2023/10/05 03:07:15;;;;;;;5.70;2.28;;;;;;;12.32;100.00;102292.53;5113923;28;20031;-36
2023/10/05 03:09:42;;;;;;;6.68;2.30;;;;;;;12.26;100.00;102279.81;5114124;28;20024;-36
2023/10/05 03:12:08;;;;;;;7.32;2.30;;;;;;;12.26;100.00;102277.94;5114098;28;20024;-36
2023/10/05 03:14:34;;;;;;;;;;;;;;;12.34;100.00;102291.28;5114492;28;20111;-36
2023/10/05 03:17:04;;;;;;;7.45;2.20;;;;;;;12.28;100.00;102280.44;5114013;28;20419;-36
2023/10/05 03:19:36;;;;;;;6.97;2.22;;;;;;;12.28;100.00;102275.84;5114063;28;20425;-36
2023/10/05 03:22:04;;;;;;;7.93;2.55;;;;;;;12.25;100.00;102280.84;5113438;28;20031;-36
2023/10/05 03:24:30;;;;;;;7.43;2.53;;;;;;;12.28;100.00;102278.56;5113664;28;20094;-36
2023/10/05 03:26:56;;;;;;;6.80;1.92;;;;;;;12.29;100.00;102276.66;5114074;28;20431;-36
2023/10/05 03:29:24;;;;;;;7.53;2.17;;;;;;;12.27;100.00;102278.78;5113641;28;20411;-36
2023/10/05 03:32:04;;;;;;;8.35;2.45;;;;;;;12.27;100.00;102273.34;5113723;28;20119;-36
2023/10/05 03:34:32;;;;;;;5.90;2.25;;;;;;;12.27;100.00;102278.78;5114498;28;20361;-36
2023/10/05 03:36:59;;;;;;;7.15;2.15;;;;;;;12.31;100.00;102272.72;5112858;28;20032;-36
2023/10/05 03:39:28;;;;;;;5.03;2.35;;;;;;;12.24;100.00;102257.47;5113276;28;20027;-36
2023/10/05 03:41:54;;;;;;;9.38;2.40;;;;;;;12.26;100.00;102252.69;5114111;28;20031;-36
2023/10/05 03:44:19;;;;;;;6.07;2.80;;;;;;;12.27;100.00;102263.31;5114894;28;20024;-36
2023/10/05 03:46:49;;;;;;;5.63;2.38;;;;;;;12.24;100.00;102268.31;5117201;28;20016;-36
2023/10/05 03:49:15;;;;;;;6.63;2.70;;;;;;;12.26;100.00;102277.09;5117326;28;20031;-36
2023/10/05 03:51:49;;;;;;;7.07;2.13;;;;;;;12.29;100.00;102277.50;5118182;27;20475;-36
2023/10/05 03:54:18;;;;;;;7.07;3.10;;;;;;;12.29;100.00;102284.81;5117570;28;20030;-36
2023/10/05 03:56:50;;;;;;;7.20;2.53;;;;;;;12.24;100.00;102280.00;5117847;28;20028;-36
2023/10/05 03:59:18;;;;;;;8.55;2.20;;;;;;;12.24;100.00;102284.59;5116895;28;20039;-35
2023/10/05 04:01:49;;;;;;;7.53;2.40;;;;;;;12.24;100.00;102280.00;5117677;28;20031;-36
2023/10/05 04:04:15;;;;;;;6.65;2.38;;;;;;;12.20;100.00;102273.34;5117424;28;20061;-36
2023/10/05 04:06:41;;;;;;;8.82;2.78;;;;;;;12.22;100.00;102276.69;5117032;28;20050;-36
2023/10/05 04:09:15;;;;;;;8.07;2.67;;;;;;;12.16;100.00;102272.09;5117605;28;20031;-35
2023/10/05 04:11:40;;;;;;;9.68;2.83;;;;;;;12.24;100.00;102276.47;5116948;28;20028;-35
2023/10/05 04:14:06;;;;;;;8.30;2.63;;;;;;;12.21;100.00;102279.59;5117316;28;20039;-35
2023/10/05 04:16:33;;;;;;;6.97;2.50;;;;;;;12.23;100.00;102277.50;5116781;28;20056;-35
2023/10/05 04:19:04;;;;;;;11.02;3.55;;;;;;;12.20;100.00;102284.19;5117022;28;20027;-35
2023/10/05 04:21:30;;;;;;;6.68;2.70;;;;;;;12.14;100.00;102273.31;5117046;28;20024;-35
2023/10/05 04:23:59;;;;;;;6.18;2.40;;;;;;;12.22;100.00;102281.28;5116460;28;20027;-35
2023/10/05 04:26:32;;;;;;;5.32;2.25;;;;;;;12.25;100.00;102280.84;5116640;28;20055;-35
2023/10/05 04:28:58;;;;;;;9.52;2.83;;;;;;;12.21;100.00;102277.72;5116304;28;20384;-36
2023/10/05 04:31:25;;;;;;;7.95;2.15;;;;;;;12.21;100.00;102287.75;5116535;28;20089;-35
2023/10/05 04:33:52;;;;;;;12.40;2.78;;;;;;;12.21;100.00;102285.03;5116546;28;20031;-36
2023/10/05 04:36:20;;;;;;;9.38;2.67;;;;;;;12.15;100.00;102275.00;5116437;28;20027;-36
2023/10/05 04:38:46;;;;;;;7.35;2.15;;;;;;;12.06;100.00;102267.06;5116387;28;20035;-35
2023/10/05 04:41:19;;;;;;;6.00;2.47;;;;;;;12.19;100.00;102287.09;5116657;28;20020;-36
2023/10/05 04:43:44;;;;;;;7.28;2.70;;;;;;;12.16;100.00;102287.53;5116656;28;20053;-36
2023/10/05 04:46:10;;;;;;;7.93;2.45;;;;;;;12.13;100.00;102287.94;5116260;28;20111;-36
2023/10/05 04:48:38;;;;;;;11.00;2.73;;;;;;;12.16;100.00;102293.78;5117145;27;20043;-36
2023/10/05 04:51:06;;;;;;;7.85;2.35;;;;;;;12.10;100.00;102279.19;5116749;28;20270;-36
2023/10/05 04:53:32;;;;;;;8.63;3.15;;;;;;;12.15;100.00;102288.53;5116523;28;20127;-36
2023/10/05 04:56:11;;;;;;;7.90;2.40;;;;;;;12.14;100.00;102289.59;5115965;28;20118;-36
2023/10/05 05:01:36;;;;;;;10.43;2.83;;;;;;;12.11;100.00;102288.16;5116491;28;20042;-36
2023/10/05 05:04:27;;;;;;;6.45;2.60;;;;;;;12.04;100.00;102279.97;5116448;28;20065;-36
2023/10/05 05:06:53;;;;;;;8.73;2.58;;;;;;;12.06;100.00;102286.06;5116625;28;20032;-36
2023/10/05 05:09:19;;;;;;;10.05;3.13;;;;;;;11.97;100.00;102272.88;5116046;28;20072;-35
2023/10/05 05:11:47;;;;;;;6.72;2.40;;;;;;;11.94;100.00;102278.72;5115449;28;20024;-36
2023/10/05 05:14:12;;;;;;;7.70;2.72;;;;;;;11.93;100.00;102282.47;5115962;28;20126;-36
2023/10/05 05:16:39;;;;;;;6.57;2.63;;;;;;;11.96;100.00;102296.47;5115620;28;20464;-36
2023/10/05 05:19:06;;;;;;;6.82;2.30;;;;;;;11.99;100.00;102293.31;5116198;28;20045;-36
2023/10/05 05:21:34;;;;;;;8.48;3.13;;;;;;;11.95;100.00;102297.47;5115574;28;20032;-35
2023/10/05 05:24:00;;;;;;;10.52;2.90;;;;;;;11.96;100.00;102293.75;5115244;28;20027;-36
2023/10/05 05:26:26;;;;;;;7.50;3.13;;;;;;;11.90;100.00;102286.41;5116363;28;20080;-36
2023/10/05 05:28:52;;;;;;;6.88;2.58;;;;;;;11.96;100.00;102293.75;5115796;27;20023;-36
2023/10/05 05:31:17;;;;;;;8.85;2.80;;;;;;;11.94;100.00;102306.66;5115337;28;20027;-36
2023/10/05 05:33:44;;;;;;;5.53;2.37;;;;;;;11.95;100.00;102285.78;5116047;28;20031;-36
2023/10/05 05:36:11;;;;;;;7.53;2.70;;;;;;;11.91;100.00;102296.25;5114971;28;20278;-36
2023/10/05 05:38:40;;;;;;;6.25;2.45;;;;;;;11.95;100.00;102307.47;5116036;28;20092;-36
2023/10/05 05:41:12;;;;;;;5.88;2.35;;;;;;;11.99;100.00;102304.16;5115196;28;20019;-36
2023/10/05 05:43:41;;;;;;;6.93;2.50;;;;;;;11.96;100.00;102315.44;5114895;28;20055;-36
2023/10/05 05:46:12;;;;;;;8.95;2.63;;;;;;;11.89;100.00;102302.88;5115146;28;20028;-36
2023/10/05 05:48:42;;;;;;;9.77;3.00;;;;;;;12.00;100.00;102319.38;5115764;28;20030;-36
2023/10/05 05:51:14;;;;;;;8.02;2.63;;;;;;;12.02;100.00;102325.44;5115537;28;20023;-36
2023/10/05 05:53:39;;;;;;;7.93;2.47;;;;;;;11.98;100.00;102317.94;5115306;28;20031;-36
2023/10/05 05:56:05;;;;;;;8.20;2.42;;;;;;;12.05;100.00;102327.78;5114983;28;20024;-36
2023/10/05 05:58:30;;;;;;;8.98;3.17;;;;;;;12.05;100.00;102322.34;5115553;28;20048;-36
2023/10/05 06:00:57;;;;;;;6.68;2.53;;;;;;;12.04;100.00;102323.38;5115156;28;20023;-36
2023/10/05 06:03:24;;;;;;;10.35;3.38;;;;;;;12.09;100.00;102315.44;5115672;28;20427;-36
2023/10/05 06:05:50;;;;;;;8.48;2.88;;;;;;;12.04;100.00;102303.56;5114612;28;20019;-36
2023/10/05 06:08:16;;;;;;;;;;;;;;;12.19;100.00;102320.47;5115394;28;20110;-36
2023/10/05 06:10:43;;;;;;;9.02;3.05;;;;;;;12.16;100.00;102322.78;5114919;28;19954;-36
2023/10/05 06:13:11;;;;;;;7.57;3.38;;;;;;;12.16;100.00;102322.78;5114897;28;20379;-36
2023/10/05 06:15:38;;;;;;;10.07;3.05;;;;;;;12.10;100.00;102322.56;5115320;28;20023;-36
2023/10/05 06:18:03;;;;;;;7.55;3.05;;;;;;;12.19;100.00;102328.59;5114171;28;20033;-36
2023/10/05 06:20:30;;;;;;;7.32;3.20;;;;;;;12.23;100.00;102326.31;5114569;28;20032;-36
2023/10/05 06:22:55;;;;;;;9.45;3.00;;;;;;;12.23;100.00;102334.47;5114785;28;20424;-36
2023/10/05 06:25:21;;;;;;;12.63;2.93;;;;;;;12.21;100.00;102320.28;5114714;28;20023;-36
2023/10/05 06:27:52;;;;;;;7.18;2.72;;;;;;;12.32;100.00;102336.78;5114420;27;20067;-36
2023/10/05 06:30:20;;;;;;;7.15;3.05;;;;;;;12.32;100.00;102338.66;5114446;28;20034;-36
2023/10/05 06:32:46;;;;;;;7.05;2.85;;;;;;;12.34;100.00;102333.84;5114903;28;20027;-36
2023/10/05 06:35:11;;;;;;;11.77;3.33;;;;;;;12.31;100.00;102326.97;5114009;28;20460;-36
2023/10/05 06:37:38;;;;;;;6.38;2.60;;;;;;;12.40;100.00;102341.19;5114780;28;20024;-36
2023/10/05 06:40:13;;;;;;;8.45;3.50;;;;;;;12.39;100.00;102336.78;5113868;28;20031;-36
2023/10/05 06:42:43;;;;;;;8.70;2.83;;;;;;;12.33;100.00;102327.59;5114245;28;20027;-36
2023/10/05 06:45:11;;;;;;;10.18;3.20;;;;;;;12.44;100.00;102339.69;5114373;28;20542;-36
2023/10/05 06:47:37;;;;;;;8.60;3.15;;;;;;;12.41;100.00;102337.44;5114121;28;20039;-36
2023/10/05 06:50:09;;;;;;;6.95;2.67;;;;;;;12.41;100.00;102339.31;5114075;28;20024;-36
2023/10/05 06:52:49;;;;;;;7.45;2.65;;;;;;;12.45;100.00;102346.81;5114907;28;20028;-36
2023/10/05 06:55:18;;;;;;;10.75;3.72;;;;;;;12.52;100.00;102363.09;5114375;28;20043;-36
2023/10/05 06:57:44;;;;;;;7.63;3.20;;;;;;;12.54;100.00;102367.28;5113849;28;20048;-36
2023/10/05 07:00:16;;;;;;;;;;;;;;;12.62;100.00;102372.50;5115019;28;20023;-36
2023/10/05 07:02:45;;;;;;;8.20;3.05;;;;;;;12.63;100.00;102376.03;5114850;28;19995;-36
2023/10/05 07:05:12;;;;;;;8.10;2.75;;;;;;;12.63;100.00;102370.63;5113935;28;20032;-36
2023/10/05 07:07:38;;;;;;;10.45;3.15;;;;;;;12.68;100.00;102375.44;5114763;28;20031;-36
2023/10/05 07:10:05;;;;;;;10.65;3.75;;;;;;;12.68;100.00;102370.81;5113927;28;20035;-36
2023/10/05 07:12:31;;;;;;;10.38;3.42;;;;;;;12.72;100.00;102371.25;5113892;28;20523;-36
2023/10/05 07:14:57;;;;;;;10.10;3.33;;;;;;;12.74;100.00;102377.34;5113808;28;20027;-36
2023/10/05 07:17:25;;;;;;;9.73;3.67;;;;;;;12.75;100.00;102373.56;5113775;28;20020;-36
2023/10/05 07:19:51;;;;;;;9.38;3.35;;;;;;;12.84;100.00;102394.88;5116304;28;20039;-36
2023/10/05 07:22:17;;;;;;;11.53;3.40;;;;;;;12.89;100.00;102391.53;5118272;28;20031;-36
2023/10/05 07:24:43;;;;;;;7.32;2.80;;;;;;;12.92;100.00;102393.81;5118136;28;20276;-36
2023/10/05 07:27:08;;;;;;;6.53;2.58;;;;;;;12.96;100.00;102392.34;5117901;28;20379;-36
2023/10/05 07:29:34;;;;;;;8.50;3.10;;;;;;;12.99;100.00;102389.22;5117860;28;20023;-36
2023/10/05 07:32:00;;;;;;;8.77;3.45;;;;;;;13.06;100.00;102400.91;5118634;28;20157;-36
2023/10/05 07:34:26;;;;;;;9.13;2.70;;;;;;;13.10;100.00;102404.06;5117395;28;20112;-36
2023/10/05 07:36:52;;;;;;;7.70;3.20;;;;;;;13.08;100.00;102396.13;5117969;28;20028;-36
2023/10/05 07:39:18;;;;;;;7.15;2.88;;;;;;;13.20;100.00;102406.34;5118408;28;20028;-36
2023/10/05 07:41:46;;;;;;;7.40;2.80;;;;;;;13.25;100.00;102417.44;5117605;28;20038;-36
2023/10/05 07:44:11;;;;;;;8.68;3.25;;;;;;;13.29;100.00;102411.38;5117517;27;20043;-36
2023/10/05 07:46:38;;;;;;;10.30;3.35;;;;;;;13.37;100.00;102418.47;5117851;28;20023;-36
2023/10/05 07:49:03;;;;;;;9.00;3.22;;;;;;;13.32;100.00;102396.53;5118034;28;20488;-36
2023/10/05 07:51:30;;;;;;;12.23;3.65;;;;;;;13.37;100.00;102411.16;5117421;28;20024;-36
2023/10/05 07:53:56;;;;;;;8.20;2.72;;;;;;;13.46;100.00;102409.03;5117095;28;20511;-36
2023/10/05 07:56:21;;;;;;;9.15;3.20;;;;;;;13.61;100.00;102423.22;5117357;28;20111;-36
2023/10/05 07:58:46;;;;;;;8.07;3.22;;;;;;;13.66;100.00;102419.88;5117748;28;20047;-36
2023/10/05 08:01:12;;;;;;;;;;;;;;;13.77;100.00;102421.13;5117648;28;20042;-36
2023/10/05 08:03:39;;;;;;;7.30;2.85;;;;;;;13.73;100.00;102414.44;5118044;28;19937;-36
2023/10/05 08:06:05;;;;;;;9.18;3.13;;;;;;;13.86;100.00;102430.72;5117589;27;20506;-36
2023/10/05 08:08:31;;;;;;;9.35;3.30;;;;;;;13.93;100.00;102431.50;5117121;28;20024;-36
2023/10/05 08:10:56;;;;;;;;;;;;;;;14.03;100.00;102431.88;5117701;28;20020;-35
2023/10/05 08:13:22;;;;;;;8.48;3.05;;;;;;;14.06;100.00;102438.78;5116823;28;19948;-36
2023/10/05 08:15:48;;;;;;;9.23;3.17;;;;;;;14.08;100.00;102436.69;5117163;28;20020;-35
2023/10/05 08:18:13;;;;;;;10.38;3.78;;;;;;;14.13;100.00;102440.41;5117443;28;20467;-35
2023/10/05 08:20:38;;;;;;;9.80;2.90;;;;;;;14.18;100.00;102435.16;5117357;27;20106;-36
2023/10/05 08:23:04;;;;;;;9.30;3.33;;;;;;;14.27;100.00;102437.63;5117108;28;20425;-35
2023/10/05 08:25:31;;;;;;;5.78;2.88;;;;;;;14.27;100.00;102426.75;5116438;28;20110;-36
2023/10/05 08:27:56;;;;;;;8.20;3.13;;;;;;;14.38;100.00;102445.13;5116300;28;20066;-36
2023/10/05 08:30:24;;;;;;;11.65;3.13;;;;;;;14.38;100.00;102429.63;5116446;28;20028;-36
2023/10/05 08:32:50;;;;;;;8.15;3.00;;;;;;;14.51;100.00;102449.69;5116611;28;20019;-36
2023/10/05 08:35:19;;;;;;;8.63;3.05;;;;;;;14.56;100.00;102447.97;5116591;28;20389;-45
2023/10/05 08:37:49;;;;;;;9.52;3.17;;;;;;;14.67;100.00;102439.09;5116985;28;20024;-36
2023/10/05 08:40:37;;;;;;;8.95;2.95;;;;;;;14.71;100.00;102439.50;5116446;28;20032;-36
2023/10/05 08:43:10;;;;;;;7.95;2.67;;;;;;;14.82;100.00;102440.69;5116410;28;20024;-36
2023/10/05 08:45:51;;;;;;;8.40;3.03;;;;;;;14.91;100.00;102450.25;5116404;28;20024;-36
2023/10/05 08:51:16;;;;;;;9.85;3.55;;;;;;;14.87;100.00;102438.13;5107114;28;20035;-36
2023/10/05 08:53:54;;;;;;;9.65;2.95;;;;;;;15.02;100.00;102465.06;5116218;28;20031;-36
2023/10/05 08:56:20;;;;;;;10.10;2.97;;;;;;;14.97;100.00;102471.16;5116143;28;20088;-36
2023/10/05 08:58:48;;;;;;;9.18;3.10;;;;;;;14.91;100.00;102458.44;5115820;28;20059;-36
2023/10/05 09:01:24;;;;;;;10.43;3.97;;;;;;;14.94;100.00;102482.50;5116009;28;20027;-36
2023/10/05 09:03:53;;;;;;;6.63;2.85;;;;;;;14.97;100.00;102476.59;5116298;28;20093;-36
2023/10/05 09:06:24;;;;;;;7.38;2.70;;;;;;;14.98;100.00;102477.44;5116777;28;20138;-35
2023/10/05 09:09:14;;;;;;;7.00;2.53;;;;;;;14.92;100.00;102477.28;5116741;27;20038;-36
2023/10/05 09:11:40;;;;;;;8.65;2.83;;;;;;;14.99;100.00;102488.13;5116672;28;20027;-36
2023/10/05 09:14:19;;;;;;;;;;;;;;;15.10;100.00;102495.59;5115948;28;20019;-36
2023/10/05 09:16:46;;;;;;;9.32;3.13;;;;;;;15.03;100.00;102502.13;5116535;28;19957;-36
2023/10/05 09:19:23;;;;;;;6.57;2.40;;;;;;;15.01;100.00;102510.53;5116253;28;20364;-36
2023/10/05 09:24:25;;;;;;;8.93;2.75;;;;;;;14.98;100.00;102505.50;5115682;28;20114;-36
2023/10/05 09:27:14;;;;;;;8.32;3.08;;;;;;;15.03;100.00;102516.63;5116110;28;20023;-36
2023/10/05 09:29:40;;;;;;;8.60;3.00;;;;;;;15.08;100.00;102514.06;5115830;28;20019;-36
2023/10/05 09:32:08;;;;;;;8.60;3.30;;;;;;;15.07;100.00;102515.09;5115216;28;20027;-36
2023/10/05 09:34:34;;;;;;;7.07;2.72;;;;;;;15.08;100.00;102516.78;5115341;28;20050;-36
2023/10/05 09:37:05;;;;;;;7.57;2.73;;;;;;;15.08;100.00;102522.22;5115907;27;20030;-36
2023/10/05 09:39:35;;;;;;;9.60;2.85;;;;;;;15.08;100.00;102524.97;5115292;28;20262;-36
2023/10/05 09:42:01;;;;;;;6.65;2.60;;;;;;;15.08;100.00;102519.50;5115016;28;20027;-36
2023/10/05 09:44:31;;;;;;;9.13;3.60;;;;;;;15.10;100.00;102516.56;5113915;28;20527;-36
2023/10/05 09:46:59;;;;;;;10.65;3.10;;;;;;;15.10;100.00;102513.81;5115903;28;20030;-36
2023/10/05 09:49:30;;;;;;;8.57;3.00;;;;;;;15.11;100.00;102507.31;5115158;28;20035;-36
2023/10/05 09:51:57;;;;;;;7.53;2.90;;;;;;;15.08;100.00;102499.56;5115571;28;20595;-36
2023/10/05 09:54:27;;;;;;;9.82;3.53;;;;;;;15.07;100.00;102501.47;5114895;28;20035;-36
2023/10/05 09:56:53;;;;;;;9.35;3.08;;;;;;;15.14;100.00;102515.06;5115481;28;20027;-36
2023/10/05 09:59:19;;;;;;;6.00;2.53;;;;;;;15.16;100.00;102512.94;5114721;28;20392;-36
2023/10/05 10:01:47;;;;;;;7.80;2.97;;;;;;;15.20;100.00;102508.72;5115156;28;20031;-36
2023/10/05 10:04:28;;;;;;;8.20;2.90;;;;;;;15.24;100.00;102512.69;5114473;28;20413;-36
2023/10/05 10:06:58;;;;;;;12.50;4.22;;;;;;;15.29;100.00;102514.75;5115095;28;20024;-36
2023/10/05 10:09:26;;;;;;;6.38;2.63;;;;;;;15.29;100.00;102510.13;5115030;28;20028;-36
2023/10/05 10:11:57;;;;;;;9.85;2.85;;;;;;;15.32;100.00;102506.09;5114935;28;20034;-36
2023/10/05 10:14:26;;;;;;;8.05;2.63;;;;;;;15.35;100.00;102508.41;5114386;28;20027;-36
2023/10/05 10:17:00;;;;;;;8.55;2.60;;;;;;;15.40;100.00;102505.84;5114746;28;20452;-36
2023/10/05 10:19:26;;;;;;;8.88;3.08;;;;;;;15.50;100.00;102510.78;5114879;28;20030;-37
2023/10/05 10:22:07;;;;;;;;;;;;;;;15.66;100.00;102511.09;5114960;28;20020;-37
2023/10/05 10:24:34;;;;;;;11.73;2.88;;;;;;;15.66;100.00;102518.41;5114492;28;19916;-36
2023/10/05 10:27:07;;;;;;;9.05;3.15;;;;;;;15.75;100.00;102513.50;5114667;28;20102;-37
2023/10/05 10:29:50;;;;;;;9.95;3.10;;;;;;;15.81;100.00;102513.47;5114785;28;20035;-36
2023/10/05 10:32:22;;;;;;;6.75;2.67;;;;;;;15.83;100.00;102499.59;5113996;28;20080;-36
2023/10/05 10:34:55;;;;;;;10.75;3.05;;;;;;;15.89;100.00;102513.16;5115162;28;20030;-36
2023/10/05 10:37:53;;;;;;;9.48;3.17;;;;;;;16.00;100.00;102514.28;5114201;28;20024;-36
2023/10/05 10:42:49;;;;;;;;;;;;;;;16.18;100.00;102516.19;5115060;28;20456;-36
2023/10/05 10:45:16;;;;;;;8.90;3.28;;;;;;;16.18;100.00;102516.19;5114429;28;19908;-36
2023/10/05 10:47:47;;;;;;;8.32;3.78;;;;;;;16.19;100.00;102496.84;5114994;28;20373;-36
2023/10/05 10:50:16;;;;;;;7.00;3.20;;;;;;;16.36;100.00;102508.00;5114705;28;20033;-36
2023/10/05 10:52:45;;;;;;;5.93;2.70;;;;;;;16.47;100.00;102503.66;5115058;28;20027;-36
2023/10/05 10:55:17;;;;;;;7.07;2.90;;;;;;;16.63;100.00;102499.44;5114026;28;20030;-36
2023/10/05 10:57:47;;;;;;;7.80;3.05;;;;;;;16.73;100.00;102506.03;5113996;28;20108;-36
2023/10/05 11:02:57;;;;;;;9.25;3.83;;;;;;;16.95;100.00;102502.81;5114547;28;20057;-36
2023/10/05 11:05:39;;;;;;;;;;;;;;;17.18;100.00;102499.31;5114373;28;20456;-36
2023/10/05 11:08:07;;;;;;;8.73;2.60;;;;;;;17.27;100.00;102497.03;5113924;28;20387;-36
2023/10/05 11:10:33;;;;;;;8.45;2.88;;;;;;;17.33;100.00;102488.75;5113621;28;20027;-37
2023/10/05 11:13:14;;;;;;;;;;;;;;;17.52;100.00;102492.22;5114036;28;20084;-36
2023/10/05 11:15:59;;;;;;;9.98;3.08;;;;;;;17.50;100.00;102497.06;5114190;28;20002;-36
2023/10/05 11:18:30;;;;;;;8.50;3.45;;;;;;;17.56;100.00;102496.09;5114099;28;20036;-36
2023/10/05 11:21:05;;;;;;;7.43;2.40;;;;;;;17.48;100.00;102474.59;5114322;28;20024;-35
2023/10/05 11:23:57;;;;;;;7.18;2.53;;;;;;;17.67;100.00;102491.72;5113723;28;20024;-36
2023/10/05 11:28:56;;;;;;;7.47;2.97;;;;;;;17.99;100.00;102492.19;5113875;28;20070;-36
2023/10/05 11:31:24;;;;;;;6.38;2.22;;;;;;;18.05;100.00;102491.22;5113743;28;20027;-36
2023/10/05 11:33:53;;;;;;;8.13;3.15;;;;;;;18.07;100.00;102486.34;5113700;28;20028;-35
2023/10/05 11:36:22;;;;;;;6.47;2.40;;;;;;;18.09;100.00;102481.44;5113887;28;20032;-35
2023/10/05 11:39:26;;;;;;;10.88;2.90;;;;;;;18.06;100.00;102490.16;5113573;28;20479;-36
2023/10/05 11:41:52;;;;;;;9.25;2.30;;;;;;;17.75;100.00;102484.00;5111865;28;20042;-36
2023/10/05 11:44:23;;;;;;;;;;;;;;;17.84;100.00;102494.59;5114043;28;20409;-36
2023/10/05 11:46:53;;;;;;;6.55;1.88;;;;;;;17.64;100.00;102495.75;5114197;28;19917;-36